createdAt,value
2022-08-04T00:01:28.238Z,38.90
2022-08-04T00:04:03.879Z,42.67
2022-08-04T00:06:56.872Z,41.55
2022-08-04T00:09:56.373Z,47.90
2022-08-04T00:12:31.113Z,46.83
2022-08-04T00:15:00.326Z,45.90
2022-08-04T00:17:36.519Z,45.33
2022-08-04T00:20:06.525Z,37.05
2022-08-04T00:22:35.206Z,42.13
2022-08-04T00:25:03.807Z,40.08
2022-08-04T00:27:30.954Z,39.05
2022-08-04T00:29:58.349Z,38.85
2022-08-04T00:32:34.565Z,37.53
2022-08-04T00:35:02.265Z,37.70
2022-08-04T00:37:28.999Z,45.22
2022-08-04T00:39:57.119Z,46.00
2022-08-04T00:42:58.833Z,55.28
2022-08-04T00:46:16.180Z,51.25
2022-08-04T00:49:16.864Z,46.30
2022-08-04T00:52:32.222Z,43.13
2022-08-04T00:55:16.211Z,48.95
2022-08-04T00:58:19.439Z,46.15
2022-08-04T01:01:14.306Z,50.95
2022-08-04T01:04:03.864Z,43.38
2022-08-04T01:06:56.418Z,50.67
2022-08-04T01:09:54.402Z,58.40
2022-08-04T01:12:50.924Z,50.42
2022-08-04T01:15:59.746Z,46.33
2022-08-04T01:18:33.439Z,42.42
2022-08-04T01:21:30.620Z,46.38
2022-08-04T01:24:25.291Z,42.22
2022-08-04T01:27:08.947Z,42.83
2022-08-04T01:29:49.161Z,42.92
2022-08-04T01:32:37.654Z,47.58
2022-08-04T01:35:04.412Z,40.53
2022-08-04T01:37:49.600Z,42.45
2022-08-04T01:40:17.041Z,49.75
2022-08-04T01:42:45.609Z,43.22
2022-08-04T01:45:13.867Z,40.33
2022-08-04T01:47:51.142Z,40.03
2022-08-04T01:50:18.184Z,42.03
2022-08-04T01:52:50.765Z,42.33
2022-08-04T01:55:18.558Z,40.13
2022-08-04T01:57:49.011Z,43.15
2022-08-04T02:00:21.737Z,41.28
2022-08-04T02:02:50.374Z,37.22
2022-08-04T02:05:19.312Z,39.50
2022-08-04T02:08:31.641Z,39.10
2022-08-04T02:11:20.323Z,44.53
2022-08-04T02:13:57.123Z,41.30
2022-08-04T02:16:42.161Z,41.72
2022-08-04T02:19:32.407Z,46.10
2022-08-04T02:22:13.156Z,43.75
2022-08-04T02:25:05.580Z,42.15
2022-08-04T02:28:04.034Z,43.75
2022-08-04T02:31:01.202Z,45.17
2022-08-04T02:33:51.620Z,58.08
2022-08-04T02:36:27.720Z,55.45
2022-08-04T02:39:01.235Z,51.30
2022-08-04T02:41:30.458Z,54.40
2022-08-04T02:44:01.854Z,58.63
2022-08-04T02:46:30.721Z,62.78
2022-08-04T02:48:58.133Z,54.67
2022-08-04T02:51:30.341Z,53.47
2022-08-04T02:53:58.902Z,58.85
2022-08-04T02:56:30.103Z,56.25
2022-08-04T02:59:09.285Z,50.50
2022-08-04T03:01:36.354Z,52.58
2022-08-04T03:04:36.458Z,56.22
2022-08-04T03:07:39.292Z,59.72
2022-08-04T03:10:21.277Z,61.45
2022-08-04T03:13:06.361Z,63.25
2022-08-04T03:16:05.750Z,57.63
2022-08-04T03:18:58.590Z,60.80
2022-08-04T03:21:43.340Z,60.75
2022-08-04T03:24:40.902Z,64.20
2022-08-04T03:27:32.457Z,59.50
2022-08-04T03:30:08.233Z,55.85
2022-08-04T03:32:59.795Z,62.40
2022-08-04T03:35:52.134Z,64.18
2022-08-04T03:38:55.649Z,61.08
2022-08-04T03:41:51.809Z,65.93
2022-08-04T03:45:23.746Z,62.35
2022-08-04T03:47:57.013Z,70.68
2022-08-04T03:51:10.668Z,69.20
2022-08-04T03:54:11.324Z,67.93
2022-08-04T03:56:58.399Z,72.75
2022-08-04T03:59:41.985Z,72.25
2022-08-04T04:02:36.308Z,60.05
2022-08-04T04:05:08.993Z,59.38
2022-08-04T04:08:07.259Z,64.68
2022-08-04T04:10:49.549Z,67.40
2022-08-04T04:13:30.673Z,64.55
2022-08-04T04:16:34.320Z,63.30
2022-08-04T04:19:19.209Z,59.28
2022-08-04T04:22:21.796Z,56.20
2022-08-04T04:25:12.565Z,58.10
2022-08-04T04:28:44.525Z,60.63
2022-08-04T04:31:34.449Z,52.80
2022-08-04T04:34:28.044Z,53.80
2022-08-04T04:37:26.530Z,51.47
2022-08-04T04:40:11.461Z,55.40
2022-08-04T04:43:09.719Z,44.97
2022-08-04T04:46:10.713Z,42.92
2022-08-04T04:48:58.522Z,39.08
2022-08-04T04:51:49.177Z,35.03
2022-08-04T04:54:33.106Z,27.35
2022-08-04T04:57:16.016Z,29.77
2022-08-04T04:59:59.641Z,25.13
2022-08-04T05:02:45.387Z,27.17
2022-08-04T05:05:41.661Z,19.25
2022-08-04T05:08:43.092Z,22.27
2022-08-04T05:11:30.930Z,18.13
2022-08-04T05:14:37.361Z,21.70
2022-08-04T05:16:58.391Z,17.40
2022-08-04T05:19:58.385Z,18.13
2022-08-04T05:22:50.084Z,14.52
2022-08-04T05:25:24.883Z,14.45
2022-08-04T05:28:00.875Z,14.60
2022-08-04T05:30:31.367Z,12.13
2022-08-04T05:33:04.031Z,11.23
2022-08-04T05:35:47.917Z,11.27
2022-08-04T05:38:34.635Z,14.32
2022-08-04T05:41:02.549Z,11.38
2022-08-04T05:43:29.963Z,11.15
2022-08-04T05:45:57.825Z,11.50
2022-08-04T05:48:25.703Z,8.68
2022-08-04T05:50:55.567Z,10.55
2022-08-04T05:53:26.289Z,9.18
2022-08-04T05:55:58.502Z,10.32
2022-08-04T05:58:29.491Z,8.18
2022-08-04T06:00:56.937Z,11.45
2022-08-04T06:03:25.499Z,11.00
2022-08-04T06:05:52.664Z,9.82
2022-08-04T06:08:19.449Z,7.25
2022-08-04T06:10:48.149Z,8.30
2022-08-04T06:13:47.844Z,8.68
2022-08-04T06:16:15.677Z,8.93
2022-08-04T06:20:00.445Z,8.00
2022-08-04T06:21:48.901Z,8.30
2022-08-04T06:24:19.699Z,6.05
2022-08-04T06:26:49.314Z,8.18
2022-08-04T06:29:35.230Z,7.57
2022-08-04T06:32:31.425Z,7.25
2022-08-04T06:35:02.116Z,4.45
2022-08-04T06:37:42.562Z,6.75
2022-08-04T06:40:31.513Z,5.75
2022-08-04T06:43:03.762Z,4.78
2022-08-04T06:45:31.983Z,6.72
2022-08-04T06:47:59.928Z,6.47
2022-08-04T06:51:26.831Z,6.70
2022-08-04T06:53:14.667Z,6.80
2022-08-04T06:55:43.732Z,7.30
2022-08-04T06:58:11.113Z,5.65
2022-08-04T07:00:40.462Z,3.78
2022-08-04T07:03:07.836Z,4.70
2022-08-04T07:05:35.938Z,4.28
2022-08-04T07:08:03.797Z,7.60
2022-08-04T07:10:31.555Z,7.03
2022-08-04T07:12:59.893Z,4.13
2022-08-04T07:15:28.339Z,8.02
2022-08-04T07:18:00.211Z,5.68
2022-08-04T07:20:35.811Z,6.10
2022-08-04T07:23:17.184Z,5.95
2022-08-04T07:26:11.337Z,9.57
2022-08-04T07:28:31.440Z,5.22
2022-08-04T07:30:58.972Z,6.65
2022-08-04T07:33:26.058Z,5.25
2022-08-04T07:36:05.545Z,2.88
2022-08-04T07:38:51.397Z,5.95
2022-08-04T07:41:41.414Z,6.22
2022-08-04T07:44:10.334Z,5.85
2022-08-04T07:46:37.394Z,5.38
2022-08-04T07:49:05.175Z,5.63
2022-08-04T07:51:35.309Z,5.25
2022-08-04T07:54:03.942Z,5.95
2022-08-04T07:56:32.128Z,7.40
2022-08-04T07:59:00.031Z,5.03
2022-08-04T08:01:27.283Z,6.25
2022-08-04T08:03:57.006Z,4.38
2022-08-04T08:06:32.648Z,5.28
2022-08-04T08:09:13.250Z,5.78
2022-08-04T08:12:38.002Z,3.85
2022-08-04T08:14:30.450Z,5.70
2022-08-04T08:16:59.238Z,8.32
2022-08-04T08:19:25.861Z,5.25
2022-08-04T08:21:58.647Z,6.97
2022-08-04T08:24:28.202Z,5.72
2022-08-04T08:26:55.963Z,5.07
2022-08-04T08:29:23.239Z,4.30
2022-08-04T08:31:57.320Z,6.53
2022-08-04T08:34:28.273Z,4.55
2022-08-04T08:37:09.677Z,6.72
2022-08-04T08:39:42.677Z,3.00
2022-08-04T08:42:38.340Z,6.78
2022-08-04T08:45:31.778Z,5.20
2022-08-04T08:48:16.434Z,5.45
2022-08-04T08:51:33.835Z,7.07
2022-08-04T08:54:28.829Z,6.20
2022-08-04T08:57:19.100Z,7.63
2022-08-04T09:00:16.821Z,4.85
2022-08-04T09:03:04.838Z,6.38
2022-08-04T09:06:11.048Z,4.80
2022-08-04T09:09:04.037Z,5.47
2022-08-04T09:11:43.936Z,5.70
2022-08-04T09:14:35.257Z,4.18
2022-08-04T09:17:05.632Z,5.03
2022-08-04T09:20:02.769Z,6.28
2022-08-04T09:22:43.645Z,3.70
2022-08-04T09:25:24.902Z,3.35
2022-08-04T09:27:52.852Z,6.95
2022-08-04T09:30:29.146Z,3.28
2022-08-04T09:32:58.651Z,6.07
2022-08-04T09:35:53.680Z,3.38
2022-08-04T09:38:36.002Z,5.10
2022-08-04T09:41:48.162Z,3.63
2022-08-04T09:45:04.941Z,3.30
2022-08-04T09:47:47.522Z,5.38
2022-08-04T09:50:37.271Z,7.63
2022-08-04T09:53:22.899Z,4.68
2022-08-04T09:56:08.391Z,4.68
2022-08-04T09:58:55.982Z,2.38
2022-08-04T10:01:25.818Z,6.53
2022-08-04T10:03:56.439Z,3.38
2022-08-04T10:06:44.769Z,5.50
2022-08-04T10:09:49.307Z,3.80
2022-08-04T10:12:25.278Z,3.63
2022-08-04T10:14:57.718Z,2.47
2022-08-04T10:17:51.871Z,2.92
2022-08-04T10:20:56.758Z,4.00
2022-08-04T10:23:55.644Z,4.65
2022-08-04T10:26:45.490Z,3.10
2022-08-04T10:29:16.483Z,3.72
2022-08-04T10:31:49.308Z,3.70
2022-08-04T10:34:26.156Z,6.57
2022-08-04T10:37:09.137Z,4.28
2022-08-04T10:40:17.171Z,4.53
2022-08-04T10:43:01.807Z,4.18
2022-08-04T10:45:45.068Z,5.15
2022-08-04T10:48:45.830Z,2.28
2022-08-04T10:51:30.202Z,3.13
2022-08-04T10:54:47.891Z,2.25
2022-08-04T10:57:36.887Z,2.78
2022-08-04T11:00:10.597Z,4.70
2022-08-04T11:02:46.851Z,2.85
2022-08-04T11:05:22.433Z,2.90
2022-08-04T11:07:53.168Z,3.15
2022-08-04T11:10:23.055Z,5.13
2022-08-04T11:12:58.188Z,3.13
2022-08-04T11:15:36.695Z,3.10
2022-08-04T11:18:16.290Z,4.72
2022-08-04T11:20:50.532Z,3.80
2022-08-04T11:23:23.586Z,2.30
2022-08-04T11:25:58.957Z,2.35
2022-08-04T11:28:52.613Z,3.17
2022-08-04T11:31:35.629Z,2.95
2022-08-04T11:34:19.293Z,2.72
2022-08-04T11:37:18.425Z,2.33
2022-08-04T11:39:54.014Z,3.00
2022-08-04T11:42:28.990Z,2.50
2022-08-04T11:44:59.773Z,2.45
2022-08-04T11:47:31.059Z,4.63
2022-08-04T11:50:06.629Z,3.45
2022-08-04T11:52:35.490Z,3.80
2022-08-04T11:55:10.104Z,3.22
2022-08-04T11:57:37.327Z,2.40
2022-08-04T12:00:14.449Z,4.18
2022-08-04T12:03:09.896Z,2.20
2022-08-04T12:05:46.897Z,3.95
2022-08-04T12:09:08.480Z,3.42
2022-08-04T12:12:20.911Z,4.15
2022-08-04T12:15:05.665Z,2.17
2022-08-04T12:17:53.192Z,2.45
2022-08-04T12:20:31.365Z,5.28
2022-08-04T12:23:03.714Z,3.20
2022-08-04T12:25:44.436Z,2.70
2022-08-04T12:28:52.519Z,3.25
2022-08-04T12:31:45.303Z,2.00
2022-08-04T12:34:43.561Z,2.33
2022-08-04T12:37:34.013Z,3.47
2022-08-04T12:40:28.560Z,3.53
2022-08-04T12:43:01.956Z,1.95
2022-08-04T12:45:30.157Z,1.92
2022-08-04T12:47:58.850Z,5.72
2022-08-04T12:50:25.960Z,3.40
2022-08-04T12:53:02.130Z,3.30
2022-08-04T12:55:33.224Z,2.50
2022-08-04T12:58:02.749Z,2.90
2022-08-04T13:00:41.337Z,4.05
2022-08-04T13:03:14.744Z,3.03
2022-08-04T13:05:42.811Z,1.73
2022-08-04T13:08:11.712Z,2.10
2022-08-04T13:10:41.689Z,3.13
2022-08-04T13:13:16.681Z,3.92
2022-08-04T13:15:47.390Z,2.40
2022-08-04T13:18:29.313Z,5.75
2022-08-04T13:21:19.495Z,3.75
2022-08-04T13:24:19.661Z,4.13
2022-08-04T13:26:54.362Z,7.47
2022-08-04T13:29:58.280Z,4.82
2022-08-04T13:32:18.001Z,5.82
2022-08-04T13:34:52.663Z,7.05
2022-08-04T13:37:23.170Z,4.97
2022-08-04T13:39:55.702Z,7.68
2022-08-04T13:42:24.210Z,5.07
2022-08-04T13:44:56.530Z,5.60
2022-08-04T13:47:35.428Z,7.50
2022-08-04T13:50:12.094Z,6.90
2022-08-04T13:52:41.768Z,6.43
2022-08-04T13:55:18.344Z,13.60
2022-08-04T13:57:47.004Z,8.50
2022-08-04T14:00:16.772Z,6.60
2022-08-04T14:03:19.003Z,7.47
2022-08-04T14:06:16.121Z,6.97
2022-08-04T14:08:47.629Z,6.22
2022-08-04T14:12:01.481Z,4.95
2022-08-04T14:14:18.473Z,6.07
2022-08-04T14:16:58.171Z,7.95
2022-08-04T14:19:30.647Z,11.80
2022-08-04T14:22:02.725Z,7.22
2022-08-04T14:24:29.608Z,9.73
2022-08-04T14:27:00.536Z,11.32
2022-08-04T14:29:37.607Z,8.45
2022-08-04T14:32:20.418Z,9.07
2022-08-04T14:34:50.966Z,8.88
2022-08-04T14:37:20.504Z,8.57
2022-08-04T14:40:17.368Z,9.23
2022-08-04T14:42:55.712Z,5.70
2022-08-04T14:45:54.051Z,10.68
2022-08-04T14:48:22.435Z,16.10
2022-08-04T14:50:50.703Z,9.60
2022-08-04T14:53:18.979Z,11.02
2022-08-04T14:55:48.060Z,8.95
2022-08-04T14:58:35.854Z,11.20
2022-08-04T15:01:10.513Z,6.05
2022-08-04T15:03:50.133Z,8.68
2022-08-04T15:06:22.651Z,8.55
2022-08-04T15:08:51.444Z,6.57
2022-08-04T15:11:23.269Z,7.03
2022-08-04T15:13:54.643Z,8.77
2022-08-04T15:16:23.256Z,7.97
2022-08-04T15:18:51.118Z,6.30
2022-08-04T15:21:22.349Z,6.75
2022-08-04T15:23:50.944Z,6.75
2022-08-04T15:26:51.953Z,6.38
2022-08-04T15:30:00.106Z,9.88
2022-08-04T15:32:32.137Z,6.35
2022-08-04T15:35:06.991Z,7.63
2022-08-04T15:37:49.721Z,6.70
2022-08-04T15:40:33.645Z,5.53
2022-08-04T15:43:43.098Z,5.20
2022-08-04T15:46:43.040Z,5.03
2022-08-04T15:49:18.418Z,5.78
2022-08-04T15:51:45.154Z,8.32
2022-08-04T15:54:28.093Z,4.22
2022-08-04T15:57:02.333Z,4.65
2022-08-04T15:59:57.539Z,5.70
2022-08-04T16:02:38.494Z,3.17
2022-08-04T16:05:18.138Z,3.08
2022-08-04T16:08:13.306Z,7.05
2022-08-04T16:10:43.117Z,5.07
2022-08-04T16:13:25.005Z,5.03
2022-08-04T16:16:04.821Z,3.78
2022-08-04T16:18:31.583Z,3.22
2022-08-04T16:21:22.233Z,4.75
2022-08-04T16:24:02.151Z,5.68
2022-08-04T16:26:45.416Z,3.88
2022-08-04T16:29:34.441Z,5.68
2022-08-04T16:32:21.978Z,6.13
2022-08-04T16:34:58.776Z,4.55
2022-08-04T16:37:37.784Z,3.97
2022-08-04T16:40:33.745Z,5.25
2022-08-04T16:43:06.756Z,3.92
2022-08-04T16:45:40.353Z,5.93
2022-08-04T16:48:08.226Z,4.85
2022-08-04T16:50:49.307Z,3.08
2022-08-04T16:53:52.513Z,5.10
2022-08-04T16:56:06.692Z,5.88
2022-08-04T16:58:35.637Z,5.43
2022-08-04T17:01:27.662Z,4.65
2022-08-04T17:04:04.666Z,4.20
2022-08-04T17:06:36.283Z,4.55
2022-08-04T17:09:10.013Z,3.78
2022-08-04T17:11:36.611Z,3.65
2022-08-04T17:14:05.674Z,4.72
2022-08-04T17:16:35.534Z,4.95
2022-08-04T17:19:03.224Z,3.72
2022-08-04T17:21:33.113Z,4.22
2022-08-04T17:24:13.427Z,5.85
2022-08-04T17:26:51.843Z,5.55
2022-08-04T17:29:44.429Z,3.85
2022-08-04T17:32:20.770Z,3.70
2022-08-04T17:34:53.361Z,6.22
2022-08-04T17:37:53.053Z,4.35
2022-08-04T17:40:11.366Z,3.20
2022-08-04T17:42:39.791Z,3.30
2022-08-04T17:45:39.956Z,4.40
2022-08-04T17:47:55.764Z,4.97
2022-08-04T17:50:34.605Z,5.68
2022-08-04T17:53:11.134Z,5.18
2022-08-04T17:55:39.563Z,3.60
2022-08-04T17:58:26.992Z,5.05
2022-08-04T18:01:24.205Z,4.28
2022-08-04T18:03:53.471Z,4.65
2022-08-04T18:06:23.024Z,3.67
2022-08-04T18:11:41.742Z,5.07
2022-08-04T18:14:10.102Z,7.25
2022-08-04T18:16:46.233Z,5.38
2022-08-04T18:19:15.136Z,3.97
2022-08-04T18:21:46.566Z,7.15
2022-08-04T18:24:35.991Z,11.13
2022-08-04T18:27:21.705Z,8.20
2022-08-04T18:30:14.458Z,10.50
2022-08-04T18:32:35.872Z,11.82
2022-08-04T18:35:17.065Z,11.45
2022-08-04T18:38:06.562Z,13.88
2022-08-04T18:40:40.600Z,9.55
2022-08-04T18:43:17.008Z,11.88
2022-08-04T18:45:55.455Z,10.68
2022-08-04T18:48:22.332Z,10.95
2022-08-04T18:51:22.771Z,9.88
2022-08-04T18:53:58.348Z,11.65
2022-08-04T18:56:30.064Z,13.07
2022-08-04T18:59:10.251Z,10.95
2022-08-04T19:02:13.728Z,10.63
2022-08-04T19:04:33.908Z,12.70
2022-08-04T19:07:28.905Z,13.90
2022-08-04T19:09:53.842Z,11.90
2022-08-04T19:12:26.816Z,13.82
2022-08-04T19:14:58.244Z,15.68
2022-08-04T19:17:56.763Z,15.07
2022-08-04T19:20:24.285Z,11.75
2022-08-04T19:24:10.895Z,14.48
2022-08-04T19:26:02.300Z,14.38
2022-08-04T19:28:28.147Z,12.50
2022-08-04T19:30:58.679Z,13.27
2022-08-04T19:33:25.679Z,15.60
2022-08-04T19:36:12.390Z,15.70
2022-08-04T19:38:39.159Z,17.52
2022-08-04T19:41:14.597Z,17.85
2022-08-04T19:43:43.926Z,19.55
2022-08-04T19:46:12.207Z,18.00
2022-08-04T19:48:39.464Z,16.98
2022-08-04T19:51:06.188Z,19.30
2022-08-04T19:53:37.636Z,21.30
2022-08-04T19:56:09.601Z,17.50
2022-08-04T19:58:38.545Z,17.55
2022-08-04T20:01:05.350Z,16.15
2022-08-04T20:04:08.028Z,18.10
2022-08-04T20:06:37.268Z,20.80
2022-08-04T20:09:03.944Z,19.65
2022-08-04T20:11:50.723Z,17.00
2022-08-04T20:14:17.794Z,21.38
2022-08-04T20:16:46.488Z,21.20
2022-08-04T20:19:14.154Z,18.88
2022-08-04T20:21:54.948Z,15.45
2022-08-04T20:24:38.615Z,15.82
2022-08-04T20:29:56.019Z,21.17
2022-08-04T20:32:25.372Z,17.67
2022-08-04T20:34:53.612Z,18.90
2022-08-04T20:37:23.270Z,21.52
2022-08-04T20:39:55.543Z,19.27
2022-08-04T20:42:27.762Z,17.88
2022-08-04T20:45:01.411Z,20.55
2022-08-04T20:47:34.964Z,18.92
2022-08-04T20:50:09.014Z,20.10
2022-08-04T20:52:37.202Z,18.30
2022-08-04T20:55:05.560Z,18.10
2022-08-04T20:57:49.530Z,19.23
2022-08-04T21:00:26.568Z,18.55
2022-08-04T21:02:58.618Z,23.08
2022-08-04T21:05:26.423Z,20.92
2022-08-04T21:07:56.658Z,21.13
2022-08-04T21:10:25.010Z,21.50
2022-08-04T21:12:52.891Z,22.30
2022-08-04T21:15:24.936Z,25.00
2022-08-04T21:17:58.678Z,24.40
2022-08-04T21:20:30.145Z,19.98
2022-08-04T21:23:02.363Z,22.50
2022-08-04T21:25:32.225Z,20.60
2022-08-04T21:28:04.240Z,22.77
2022-08-04T21:30:37.034Z,24.85
2022-08-04T21:33:18.497Z,20.35
2022-08-04T21:35:46.620Z,22.15
2022-08-04T21:38:17.197Z,21.30
2022-08-04T21:40:55.932Z,19.98
2022-08-04T21:43:27.251Z,19.23
2022-08-04T21:45:56.906Z,21.30
2022-08-04T21:48:31.499Z,23.13
2022-08-04T21:51:57.065Z,24.48
2022-08-04T21:54:05.687Z,16.63
2022-08-04T21:56:33.185Z,20.80
2022-08-04T21:59:02.604Z,19.58
2022-08-04T22:01:52.432Z,17.80
2022-08-04T22:04:20.739Z,19.95
2022-08-04T22:06:47.763Z,17.38
2022-08-04T22:09:21.910Z,18.00
2022-08-04T22:11:50.701Z,15.50
2022-08-04T22:14:29.529Z,17.80
2022-08-04T22:17:02.282Z,15.27
2022-08-04T22:19:50.725Z,16.20
2022-08-04T22:22:24.669Z,15.45
2022-08-04T22:24:53.638Z,14.15
2022-08-04T22:27:39.004Z,13.80
2022-08-04T22:30:17.453Z,14.82
2022-08-04T22:32:46.509Z,12.27
2022-08-04T22:35:36.605Z,12.60
2022-08-04T22:38:06.691Z,9.45
2022-08-04T22:40:41.990Z,10.20
2022-08-04T22:43:31.166Z,10.02
2022-08-04T22:46:02.008Z,10.48
2022-08-04T22:48:31.987Z,11.00
2022-08-04T22:50:59.687Z,8.23
2022-08-04T22:53:26.434Z,10.05
2022-08-04T22:56:06.930Z,10.65
2022-08-04T22:58:45.050Z,7.35
2022-08-04T23:01:17.003Z,10.70
2022-08-04T23:03:55.514Z,8.65
2022-08-04T23:06:24.280Z,11.23
2022-08-04T23:08:51.253Z,8.70
2022-08-04T23:11:17.879Z,10.85
2022-08-04T23:13:45.372Z,10.05
2022-08-04T23:16:12.363Z,10.52
2022-08-04T23:18:42.061Z,9.98
2022-08-04T23:21:10.967Z,10.77
2022-08-04T23:23:55.664Z,8.60
2022-08-04T23:26:27.999Z,7.97
2022-08-04T23:28:55.997Z,6.57
2022-08-04T23:31:23.413Z,7.85
2022-08-04T23:33:51.754Z,7.72
2022-08-04T23:36:30.098Z,8.50
2022-08-04T23:39:04.236Z,7.95
2022-08-04T23:41:50.903Z,7.93
2022-08-04T23:44:25.286Z,7.85
2022-08-04T23:47:03.241Z,11.93
2022-08-04T23:49:43.905Z,6.47
2022-08-04T23:52:23.090Z,7.18
2022-08-04T23:54:54.765Z,6.65
2022-08-04T23:57:22.067Z,6.53
2022-08-04T23:59:54.378Z,8.45
